Time;durP1;ratioP1;P1;durP2;ratioP2;P2;SDS_P1;SDS_P2;PMS_P1;PMS_P2;Temp;Humidity;BMP_temperature;BMP_pressure;BME280_temperature;BME280_humidity;BME280_pressure;Samples;Min_cycle;Max_cycle;Signal;HPM_P1;HPM_P2
2024/01/02 00:01:37;;;;;;;12.60;3.33;;;5.60;99.90;;;;;;5073975;28;20504;-60
2024/01/02 00:04:03;;;;;;;14.35;3.65;;;5.50;99.90;;;;;;5074301;28;20092;-61
2024/01/02 00:06:29;;;;;;;12.63;3.30;;;5.60;99.90;;;;;;5074446;28;20043;-61
2024/01/02 00:08:54;;;;;;;10.50;3.35;;;4.80;99.90;;;;;;5074309;28;20516;-61
2024/01/02 00:11:20;;;;;;;12.57;3.95;;;4.60;99.90;;;;;;5074051;28;20039;-61
2024/01/02 00:13:47;;;;;;;12.65;4.03;;;6.40;99.90;;;;;;5074081;28;20036;-61
2024/01/02 00:16:12;;;;;;;13.93;3.72;;;5.60;99.90;;;;;;5074241;28;20147;-61
2024/01/02 00:18:38;;;;;;;10.98;3.83;;;4.60;99.90;;;;;;5074081;28;20119;-61
2024/01/02 00:21:04;;;;;;;11.20;3.60;;;5.60;99.90;;;;;;5073916;28;20032;-61
2024/01/02 00:23:30;;;;;;;14.48;4.18;;;4.60;99.90;;;;;;5073785;28;20040;-61
2024/01/02 00:25:56;;;;;;;11.02;3.65;;;6.20;99.90;;;;;;5073261;28;20040;-61
2024/01/02 00:28:21;;;;;;;11.65;3.50;;;4.90;99.90;;;;;;5073512;28;20051;-61
2024/01/02 00:30:47;;;;;;;16.83;3.95;;;6.40;99.90;;;;;;5073515;28;20029;-61
2024/01/02 00:33:13;;;;;;;15.60;3.88;;;4.60;99.90;;;;;;5072244;28;20053;-60
2024/01/02 00:35:39;;;;;;;17.67;4.10;;;6.40;99.90;;;;;;5073382;28;20036;-61
2024/01/02 00:38:05;;;;;;;13.05;3.50;;;4.60;99.90;;;;;;5073306;28;20079;-61
2024/01/02 00:40:30;;;;;;;14.98;4.03;;;6.40;99.90;;;;;;5073553;28;20036;-61
2024/01/02 00:42:56;;;;;;;14.68;3.25;;;6.40;99.90;;;;;;5072078;28;20040;-61
2024/01/02 00:45:22;;;;;;;15.05;4.45;;;4.70;99.90;;;;;;5073392;28;20384;-61
2024/01/02 00:47:48;;;;;;;15.88;3.22;;;5.90;99.90;;;;;;5073312;28;20125;-61
2024/01/02 00:50:14;;;;;;;11.70;3.20;;;5.10;99.90;;;;;;5072905;28;20504;-61
2024/01/02 00:52:39;;;;;;;10.57;3.65;;;6.50;99.90;;;;;;5073092;28;20062;-62
2024/01/02 00:55:06;;;;;;;14.18;4.05;;;5.90;99.90;;;;;;5072765;28;20036;-62
2024/01/02 00:57:32;;;;;;;14.60;2.95;;;6.00;99.90;;;;;;5072902;28;20497;-61
2024/01/02 00:59:58;;;;;;;15.15;4.47;;;6.20;99.90;;;;;;5072568;28;20044;-61
2024/01/02 01:02:24;;;;;;;8.95;2.90;;;6.20;99.90;;;;;;5072754;28;20135;-61
2024/01/02 01:04:50;;;;;;;12.77;2.85;;;5.40;99.90;;;;;;5072859;28;20178;-61
2024/01/02 01:07:16;;;;;;;11.48;2.42;;;6.30;99.90;;;;;;5072830;28;20040;-62
2024/01/02 01:09:41;;;;;;;13.27;2.60;;;4.90;99.90;;;;;;5073023;28;20037;-61
2024/01/02 01:12:08;;;;;;;12.65;3.63;;;6.50;99.90;;;;;;5072568;28;20047;-61
2024/01/02 01:14:34;;;;;;;11.85;2.78;;;5.40;99.90;;;;;;5072749;28;20045;-60
2024/01/02 01:17:00;;;;;;;15.23;3.47;;;6.50;99.90;;;;;;5072494;28;20373;-61
2024/01/02 01:19:26;;;;;;;15.02;2.75;;;5.20;99.90;;;;;;5072548;28;20051;-60
2024/01/02 01:21:51;;;;;;;12.10;2.53;;;4.70;99.90;;;;;;5072519;28;20704;-60
2024/01/02 01:24:18;;;;;;;9.48;2.38;;;5.70;99.90;;;;;;5072522;28;20048;-61
2024/01/02 01:26:45;;;;;;;17.10;2.90;;;4.60;99.90;;;;;;5072721;28;20040;-61
2024/01/02 01:29:12;;;;;;;13.77;3.20;;;6.70;99.90;;;;;;5072310;28;20045;-61
2024/01/02 01:31:37;;;;;;;11.30;3.60;;;6.80;99.90;;;;;;5072446;28;20102;-61
2024/01/02 01:34:03;;;;;;;16.20;2.90;;;5.30;99.90;;;;;;5072475;28;20055;-61
2024/01/02 01:36:29;;;;;;;12.05;2.83;;;4.60;99.90;;;;;;5071721;28;20032;-61
2024/01/02 01:38:55;;;;;;;12.95;2.95;;;4.80;99.90;;;;;;5072203;28;20044;-62
2024/01/02 01:41:21;;;;;;;14.85;3.30;;;6.70;99.90;;;;;;5072487;28;20041;-60
2024/01/02 01:43:47;;;;;;;14.07;2.70;;;5.50;99.90;;;;;;5072077;28;20110;-61
2024/01/02 01:46:14;;;;;;;12.05;2.85;;;5.00;99.90;;;;;;5071948;28;20518;-61
2024/01/02 01:48:40;;;;;;;16.30;3.08;;;6.60;99.90;;;;;;5072105;28;20040;-61
2024/01/02 01:51:07;;;;;;;9.00;2.25;;;7.00;99.90;;;;;;5071999;28;20107;-61
2024/01/02 01:53:34;;;;;;;9.63;2.80;;;6.80;99.90;;;;;;5071985;28;20048;-62
2024/01/02 01:56:00;;;;;;;15.13;4.30;;;7.00;99.90;;;;;;5072224;28;20036;-61
2024/01/02 01:58:27;;;;;;;9.60;3.20;;;4.70;99.90;;;;;;5072077;28;20036;-61
2024/01/02 02:00:52;;;;;;;10.68;2.35;;;7.20;99.90;;;;;;5072015;28;20501;-61
2024/01/02 02:03:19;;;;;;;12.13;2.30;;;7.20;99.90;;;;;;5071923;28;20051;-61
2024/01/02 02:05:45;;;;;;;13.25;3.00;;;4.50;99.90;;;;;;5072306;28;20072;-61
2024/01/02 02:08:11;;;;;;;13.73;3.28;;;4.70;99.90;;;;;;5071820;28;20127;-61
2024/01/02 02:10:37;;;;;;;10.80;2.38;;;7.20;99.90;;;;;;5072107;28;20111;-62
2024/01/02 02:13:03;;;;;;;8.50;2.47;;;6.10;99.90;;;;;;5071802;28;20040;-61
2024/01/02 02:15:28;;;;;;;13.07;2.80;;;7.20;99.90;;;;;;5070776;28;20075;-61
2024/01/02 02:17:54;;;;;;;12.00;2.67;;;5.30;99.90;;;;;;5071622;28;20042;-61
2024/01/02 02:20:20;;;;;;;9.35;2.50;;;7.20;99.90;;;;;;5071985;28;20041;-61
2024/01/02 02:22:49;;;;;;;10.70;2.53;;;4.70;99.90;;;;;;5071702;28;20036;-61
2024/01/02 02:25:15;;;;;;;10.20;2.65;;;4.60;99.90;;;;;;5071572;28;20647;-61
2024/01/02 02:27:41;;;;;;;11.98;2.70;;;4.80;99.90;;;;;;5071915;28;20041;-61
2024/01/02 02:30:07;;;;;;;14.13;3.55;;;7.30;99.90;;;;;;5071986;28;20488;-59
2024/01/02 02:32:33;;;;;;;10.88;3.08;;;6.40;99.90;;;;;;5071535;28;20515;-61
2024/01/02 02:34:58;;;;;;;10.65;3.33;;;7.20;99.90;;;;;;5071499;28;20033;-61
2024/01/02 02:37:24;;;;;;;13.57;2.90;;;6.20;99.90;;;;;;5071225;28;20040;-61
2024/01/02 02:39:50;;;;;;;15.85;3.30;;;7.30;99.90;;;;;;5071192;28;20124;-61
2024/01/02 02:42:15;;;;;;;13.60;2.92;;;7.50;99.90;;;;;;5071179;28;20047;-61
2024/01/02 02:44:42;;;;;;;11.93;3.22;;;4.80;99.90;;;;;;5071358;28;20048;-61
2024/01/02 02:47:09;;;;;;;11.45;3.55;;;7.30;99.90;;;;;;5070119;28;20052;-61
2024/01/02 02:49:36;;;;;;;10.60;3.28;;;5.10;99.90;;;;;;5075456;28;20036;-61
2024/01/02 02:52:02;;;;;;;13.82;4.30;;;4.70;99.90;;;;;;5075204;28;20048;-61
2024/01/02 02:54:28;;;;;;;11.48;3.80;;;5.90;99.90;;;;;;5075183;28;20512;-61
2024/01/02 02:56:54;;;;;;;13.43;4.28;;;7.40;99.90;;;;;;5074873;28;20041;-61
2024/01/02 02:59:19;;;;;;;11.40;3.88;;;7.50;99.90;;;;;;5074944;28;20071;-61
2024/01/02 03:01:45;;;;;;;12.98;4.30;;;4.60;99.90;;;;;;5075002;28;20397;-61
2024/01/02 03:04:11;;;;;;;15.68;4.30;;;5.70;99.90;;;;;;5074985;28;20033;-62
2024/01/02 03:06:36;;;;;;;12.73;4.55;;;6.40;99.90;;;;;;5074809;28;20036;-62
2024/01/02 03:09:03;;;;;;;13.40;4.43;;;7.30;99.90;;;;;;5075249;28;20055;-61
2024/01/02 03:11:29;;;;;;;13.52;4.75;;;4.80;99.90;;;;;;5074837;28;20079;-61
2024/01/02 03:13:55;;;;;;;15.13;5.15;;;6.50;99.90;;;;;;5074386;28;20105;-61
2024/01/02 03:16:24;;;;;;;15.55;5.90;;;7.60;99.90;;;;;;5074347;28;20033;-61
2024/01/02 03:18:50;;;;;;;9.38;5.25;;;4.70;99.90;;;;;;5074300;28;20039;-62
2024/01/02 03:21:16;;;;;;;15.60;5.43;;;7.20;99.90;;;;;;5075193;28;20036;-61
2024/01/02 03:23:42;;;;;;;13.60;5.53;;;5.00;99.90;;;;;;5075407;28;20036;-61
2024/01/02 03:26:11;;;;;;;11.95;5.03;;;6.70;99.90;;;;;;5074271;28;20047;-61
2024/01/02 03:28:37;;;;;;;13.93;5.25;;;7.60;99.90;;;;;;5074198;28;20048;-61
2024/01/02 03:31:05;;;;;;;13.48;5.40;;;7.50;99.90;;;;;;5073924;28;20037;-62
2024/01/02 03:33:31;;;;;;;17.38;6.50;;;7.10;99.90;;;;;;5072666;28;20546;-60
2024/01/02 03:35:57;;;;;;;14.35;5.40;;;5.20;99.90;;;;;;5074030;28;20400;-61
2024/01/02 03:38:23;;;;;;;14.05;5.28;;;5.40;99.90;;;;;;5074073;28;20044;-61
2024/01/02 03:40:48;;;;;;;11.05;5.25;;;7.40;99.90;;;;;;5073933;28;20041;-62
2024/01/02 03:43:14;;;;;;;12.43;6.35;;;7.30;99.90;;;;;;5073931;28;20077;-61
2024/01/02 03:45:40;;;;;;;12.57;5.68;;;7.30;99.90;;;;;;5073946;28;20040;-62
2024/01/02 03:48:06;;;;;;;13.15;5.50;;;4.90;99.90;;;;;;5073629;28;20079;-61
2024/01/02 03:50:31;;;;;;;13.18;5.00;;;5.70;99.90;;;;;;5074017;28;20040;-61
2024/01/02 03:52:57;;;;;;;15.40;5.60;;;7.40;99.90;;;;;;5073726;28;20077;-62
2024/01/02 03:55:23;;;;;;;12.55;5.53;;;5.30;99.90;;;;;;5074052;28;20037;-61
2024/01/02 03:57:49;;;;;;;12.27;5.45;;;7.70;99.90;;;;;;5073791;28;20051;-61
2024/01/02 04:00:14;;;;;;;16.00;5.90;;;7.40;99.90;;;;;;5072778;28;20051;-61
2024/01/02 04:02:40;;;;;;;12.65;5.97;;;5.00;99.90;;;;;;5073792;28;20090;-61
2024/01/02 04:05:07;;;;;;;13.35;4.88;;;4.80;99.90;;;;;;5072399;28;20481;-61
2024/01/02 04:07:33;;;;;;;12.63;4.47;;;4.70;99.90;;;;;;5072567;28;20032;-61
2024/01/02 04:09:58;;;;;;;12.15;4.38;;;5.10;99.90;;;;;;5073288;28;20048;-61
2024/01/02 04:12:24;;;;;;;11.82;5.50;;;5.20;99.90;;;;;;5073565;28;20040;-61
2024/01/02 04:14:50;;;;;;;14.80;5.10;;;7.50;99.90;;;;;;5073554;28;20420;-61
2024/01/02 04:17:16;;;;;;;12.88;4.40;;;4.70;99.90;;;;;;5071829;28;20400;-61
2024/01/02 04:19:41;;;;;;;10.13;4.70;;;7.40;99.90;;;;;;5073489;28;20045;-61
2024/01/02 04:22:07;;;;;;;9.88;4.30;;;4.90;99.90;;;;;;5072032;28;20037;-62
2024/01/02 04:24:33;;;;;;;10.90;4.00;;;4.80;99.90;;;;;;5073225;28;20047;-61
2024/01/02 04:26:58;;;;;;;12.90;4.43;;;5.10;99.90;;;;;;5072951;28;20123;-61
2024/01/02 04:29:24;;;;;;;12.93;4.38;;;4.90;99.90;;;;;;5072219;28;20158;-61
2024/01/02 04:31:50;;;;;;;8.93;4.10;;;7.60;99.90;;;;;;5073219;28;20041;-62
2024/01/02 04:34:15;;;;;;;10.40;4.47;;;5.60;99.90;;;;;;5073170;28;20056;-61
2024/01/02 04:36:42;;;;;;;12.20;4.18;;;6.30;99.90;;;;;;5072887;28;20369;-62
2024/01/02 04:39:08;;;;;;;10.88;4.15;;;7.60;99.90;;;;;;5073001;28;20037;-63
2024/01/02 04:41:34;;;;;;;11.65;3.88;;;6.80;99.90;;;;;;5072900;28;20121;-62
2024/01/02 04:43:59;;;;;;;8.88;3.80;;;5.60;99.90;;;;;;5071619;28;20079;-63
2024/01/02 04:46:27;;;;;;;10.07;3.83;;;5.60;99.90;;;;;;5072657;28;20386;-62
2024/01/02 04:48:56;;;;;;;7.93;3.97;;;4.80;99.90;;;;;;5072678;28;20063;-62
2024/01/02 04:51:22;;;;;;;13.02;4.40;;;7.60;99.90;;;;;;5072665;28;20048;-61
2024/01/02 04:53:47;;;;;;;11.45;3.92;;;4.90;99.90;;;;;;5072472;28;20032;-62
2024/01/02 04:56:13;;;;;;;8.85;3.40;;;5.10;99.90;;;;;;5072797;28;20166;-62
2024/01/02 04:58:39;;;;;;;10.15;3.67;;;4.90;99.90;;;;;;5072542;28;20037;-62
2024/01/02 05:01:05;;;;;;;10.13;3.10;;;7.20;99.90;;;;;;5072100;28;20099;-62
2024/01/02 05:03:31;;;;;;;9.57;3.30;;;4.90;99.90;;;;;;5072895;28;20047;-61
2024/01/02 05:05:57;;;;;;;9.00;3.33;;;7.50;99.90;;;;;;5072330;28;20036;-62
2024/01/02 05:08:23;;;;;;;9.85;3.58;;;5.50;99.90;;;;;;5072462;28;20041;-62
2024/01/02 05:10:48;;;;;;;11.77;3.10;;;7.40;99.90;;;;;;5072407;28;20036;-62
2024/01/02 05:13:14;;;;;;;11.05;3.22;;;7.50;99.90;;;;;;5072371;28;20393;-62
2024/01/02 05:15:40;;;;;;;10.68;3.17;;;4.80;99.90;;;;;;5072254;28;20036;-62
2024/01/02 05:18:06;;;;;;;8.27;2.55;;;5.80;99.90;;;;;;5072204;28;20094;-61
2024/01/02 05:20:32;;;;;;;8.95;2.92;;;6.90;99.90;;;;;;5072122;28;20040;-61
2024/01/02 05:23:03;;;;;;;7.40;2.40;;;5.20;99.90;;;;;;5071973;28;20446;-61
2024/01/02 05:25:32;;;;;;;8.68;2.50;;;7.10;99.90;;;;;;5072070;28;20094;-61
2024/01/02 05:27:57;;;;;;;8.38;2.40;;;6.70;99.90;;;;;;5071799;28;20037;-61
2024/01/02 05:30:23;;;;;;;7.78;2.40;;;6.50;99.90;;;;;;5071764;28;20044;-62
2024/01/02 05:32:50;;;;;;;7.97;2.70;;;7.40;99.90;;;;;;5072093;28;20036;-62
2024/01/02 05:35:15;;;;;;;6.22;2.30;;;4.90;99.90;;;;;;5071664;28;20052;-61
2024/01/02 05:37:41;;;;;;;7.13;2.38;;;5.90;99.90;;;;;;5072194;28;20029;-61
2024/01/02 05:40:09;;;;;;;7.78;2.53;;;4.80;99.90;;;;;;5071932;28;20560;-62
2024/01/02 05:42:35;;;;;;;9.82;2.80;;;6.40;99.90;;;;;;5071517;28;20036;-62
2024/01/02 05:45:01;;;;;;;7.40;2.72;;;4.90;99.90;;;;;;5071584;28;20044;-62
2024/01/02 05:47:26;;;;;;;7.65;2.45;;;6.20;99.90;;;;;;5071677;28;20037;-63
2024/01/02 05:49:52;;;;;;;5.22;1.90;;;6.80;99.90;;;;;;5071689;28;20551;-62
2024/01/02 05:52:18;;;;;;;7.18;2.33;;;7.50;99.90;;;;;;5070610;28;20048;-62
2024/01/02 05:54:43;;;;;;;7.20;2.47;;;5.40;99.90;;;;;;5071504;28;20040;-61
2024/01/02 05:57:11;;;;;;;5.72;2.20;;;7.70;99.90;;;;;;5071499;28;20040;-62
2024/01/02 05:59:36;;;;;;;6.15;2.05;;;4.90;99.90;;;;;;5071526;28;20147;-62
2024/01/02 06:02:02;;;;;;;7.38;2.30;;;7.50;99.90;;;;;;5071748;28;20490;-62
2024/01/02 06:04:28;;;;;;;5.72;1.95;;;7.60;99.90;;;;;;5071640;28;20047;-62
2024/01/02 06:06:54;;;;;;;6.38;2.03;;;6.70;99.90;;;;;;5071334;28;20182;-61
2024/01/02 06:09:20;;;;;;;5.05;1.50;;;5.10;99.90;;;;;;5071828;28;20039;-61
2024/01/02 06:11:45;;;;;;;5.20;1.92;;;5.80;99.90;;;;;;5071881;28;20044;-62
2024/01/02 06:14:11;;;;;;;4.03;1.55;;;5.30;99.90;;;;;;5071989;28;20052;-61
2024/01/02 06:16:38;;;;;;;4.13;1.50;;;5.00;99.90;;;;;;5070596;28;20384;-60
2024/01/02 06:19:04;;;;;;;6.82;1.92;;;5.00;99.90;;;;;;5071779;28;20040;-61
2024/01/02 06:21:30;;;;;;;4.90;1.70;;;5.10;99.90;;;;;;5071827;28;20430;-61
2024/01/02 06:23:56;;;;;;;4.25;1.60;;;6.60;99.90;;;;;;5074692;28;20162;-61
2024/01/02 06:26:21;;;;;;;4.55;1.58;;;7.20;99.90;;;;;;5076041;28;20040;-61
2024/01/02 06:28:47;;;;;;;4.75;1.58;;;7.70;99.90;;;;;;5075957;28;20044;-62
2024/01/02 06:31:13;;;;;;;3.40;1.30;;;4.90;99.90;;;;;;5075585;28;20128;-61
2024/01/02 06:33:44;;;;;;;5.47;1.52;;;7.50;99.90;;;;;;5075294;28;20051;-61
2024/01/02 06:36:11;;;;;;;4.93;1.43;;;4.80;99.90;;;;;;5075729;28;20051;-61
2024/01/02 06:38:38;;;;;;;3.75;1.30;;;7.50;99.90;;;;;;5075112;28;20390;-62
2024/01/02 06:41:04;;;;;;;5.75;1.40;;;5.20;99.90;;;;;;5074611;28;20075;-62
2024/01/02 06:43:30;;;;;;;3.78;1.30;;;5.80;99.90;;;;;;5073355;28;20350;-61
2024/01/02 06:45:56;;;;;;;4.75;1.35;;;7.70;99.90;;;;;;5074219;28;20037;-60
2024/01/02 06:48:21;;;;;;;2.85;1.20;;;6.40;99.90;;;;;;5074752;28;20036;-60
2024/01/02 06:50:48;;;;;;;5.15;1.17;;;7.60;99.90;;;;;;5073108;28;20539;-62
2024/01/02 06:53:13;;;;;;;4.55;1.30;;;5.80;99.90;;;;;;5072977;28;20082;-61
2024/01/02 06:55:39;;;;;;;2.50;1.13;;;4.90;99.90;;;;;;5073174;28;20036;-61
2024/01/02 06:58:05;;;;;;;3.33;1.25;;;5.20;99.90;;;;;;5074409;28;20045;-61
2024/01/02 07:00:32;;;;;;;3.47;1.20;;;7.30;99.90;;;;;;5073952;28;20055;-61
2024/01/02 07:02:59;;;;;;;3.85;1.15;;;4.90;99.90;;;;;;5073903;28;20048;-61
2024/01/02 07:05:24;;;;;;;3.80;1.20;;;7.50;99.90;;;;;;5074563;28;20040;-61
2024/01/02 07:07:50;;;;;;;2.63;1.17;;;4.90;99.90;;;;;;5074433;28;20457;-61
2024/01/02 07:10:16;;;;;;;2.97;1.25;;;7.30;99.90;;;;;;5073154;28;20040;-61
2024/01/02 07:12:42;;;;;;;5.50;1.50;;;7.20;99.90;;;;;;5074130;28;20080;-61
2024/01/02 07:15:08;;;;;;;3.38;1.42;;;4.90;99.90;;;;;;5073958;28;20427;-61
2024/01/02 07:17:34;;;;;;;2.78;1.30;;;7.20;99.90;;;;;;5073317;28;20079;-61
2024/01/02 07:19:59;;;;;;;3.85;1.25;;;5.80;99.90;;;;;;5059231;28;20751;-61
2024/01/02 07:22:28;;;;;;;2.90;1.10;;;7.60;99.90;;;;;;5054261;28;20037;-61
2024/01/02 07:24:55;;;;;;;3.35;1.20;;;7.80;99.90;;;;;;5054054;28;20592;-61
2024/01/02 07:27:21;;;;;;;3.15;1.20;;;7.10;99.90;;;;;;5052259;28;20037;-61
2024/01/02 07:29:47;;;;;;;3.30;1.40;;;7.70;99.90;;;;;;5051951;28;20049;-61
2024/01/02 07:32:13;;;;;;;2.63;1.10;;;7.70;99.90;;;;;;5053410;28;20508;-61
2024/01/02 07:34:39;;;;;;;2.95;1.23;;;7.90;99.90;;;;;;5052161;28;20037;-61
2024/01/02 07:37:04;;;;;;;2.70;1.08;;;5.90;99.90;;;;;;5053739;28;20045;-60
2024/01/02 07:39:30;;;;;;;3.50;1.42;;;5.20;99.90;;;;;;5053488;28;20045;-62
2024/01/02 07:41:56;;;;;;;2.67;1.05;;;7.80;99.90;;;;;;5053558;28;20032;-61
2024/01/02 07:44:22;;;;;;;2.83;1.20;;;7.70;99.90;;;;;;5053480;28;20474;-61
2024/01/02 07:46:48;;;;;;;4.55;1.40;;;6.30;99.90;;;;;;5067622;28;20429;-61
2024/01/02 07:49:13;;;;;;;2.65;1.20;;;7.70;99.90;;;;;;5073593;28;20036;-61
2024/01/02 07:51:39;;;;;;;3.47;1.13;;;5.60;99.90;;;;;;5073757;28;20117;-61
2024/01/02 07:54:05;;;;;;;2.83;1.10;;;5.20;99.90;;;;;;5073347;28;20040;-61
2024/01/02 07:56:32;;;;;;;2.72;1.20;;;8.10;99.90;;;;;;5073249;28;20123;-61
2024/01/02 07:58:58;;;;;;;3.05;1.10;;;5.30;99.90;;;;;;5073057;28;20032;-61
2024/01/02 08:01:23;;;;;;;2.42;1.00;;;6.90;99.90;;;;;;5072188;28;20536;-61
2024/01/02 08:03:49;;;;;;;3.17;1.30;;;5.60;99.90;;;;;;5073278;28;20476;-62
2024/01/02 08:06:15;;;;;;;3.17;1.40;;;6.60;99.90;;;;;;5072492;28;20124;-61
2024/01/02 08:08:40;;;;;;;3.28;1.13;;;5.50;99.90;;;;;;5072244;28;20040;-61
2024/01/02 08:11:08;;;;;;;3.47;1.30;;;8.00;99.90;;;;;;5072859;28;20041;-62
2024/01/02 08:13:34;;;;;;;3.50;1.40;;;8.10;99.90;;;;;;5072758;28;20123;-62
2024/01/02 08:16:00;;;;;;;6.70;1.70;;;6.20;99.90;;;;;;5073083;28;20044;-61
2024/01/02 08:18:27;;;;;;;3.72;1.60;;;8.40;99.90;;;;;;5067324;28;20369;-61
2024/01/02 08:20:53;;;;;;;4.95;1.92;;;8.20;99.90;;;;;;5061426;28;20045;-61
2024/01/02 08:23:18;;;;;;;5.22;2.00;;;5.60;99.90;;;;;;5063265;28;20044;-61
2024/01/02 08:25:44;;;;;;;5.00;1.98;;;6.70;99.90;;;;;;5062631;28;20432;-61
2024/01/02 08:28:10;;;;;;;8.20;2.17;;;6.40;99.90;;;;;;5063812;28;20051;-60
2024/01/02 08:30:35;;;;;;;6.90;2.35;;;8.70;99.90;;;;;;5058468;28;20124;-61
2024/01/02 08:33:01;;;;;;;7.00;2.55;;;7.00;99.90;;;;;;5051858;28;20121;-61
2024/01/02 08:35:27;;;;;;;7.43;2.70;;;9.00;99.90;;;;;;5052737;28;20063;-61
2024/01/02 08:37:52;;;;;;;9.93;2.80;;;8.90;99.90;;;;;;5051388;28;20102;-61
2024/01/02 08:40:18;;;;;;;9.75;3.05;;;6.70;99.90;;;;;;5051313;28;20132;-62
2024/01/02 08:42:44;;;;;;;7.25;2.70;;;6.70;99.90;;;;;;5055958;28;20057;-62
2024/01/02 08:45:10;;;;;;;11.43;2.83;;;6.60;99.90;;;;;;5060886;28;20692;-61
2024/01/02 08:47:38;;;;;;;8.60;3.03;;;8.10;99.90;;;;;;5061338;28;20526;-61
2024/01/02 08:50:06;;;;;;;11.25;3.92;;;6.50;99.90;;;;;;5058467;28;20068;-61
2024/01/02 08:52:32;;;;;;;15.00;3.55;;;9.50;99.90;;;;;;5063565;28;20621;-60
2024/01/02 08:54:58;;;;;;;12.50;3.55;;;7.10;99.90;;;;;;5058935;28;20032;-62
2024/01/02 08:57:24;;;;;;;15.60;3.30;;;6.80;99.90;;;;;;5060149;28;20466;-62
2024/01/02 08:59:50;;;;;;;20.15;3.85;;;10.10;99.90;;;;;;5061136;28;20066;-60
2024/01/02 09:02:15;;;;;;;17.13;2.50;;;7.00;99.90;;;;;;5062697;28;20102;-61
2024/01/02 09:04:43;;;;;;;13.70;2.92;;;9.80;99.90;;;;;;5059494;28;20068;-62
2024/01/02 09:07:09;;;;;;;14.70;2.05;;;9.90;99.90;;;;;;5055701;28;20116;-61
2024/01/02 09:09:35;;;;;;;12.55;3.00;;;7.40;99.90;;;;;;5052217;28;20045;-62
2024/01/02 09:12:02;;;;;;;11.32;2.63;;;10.00;99.90;;;;;;5052282;28;20442;-62
2024/01/02 09:14:29;;;;;;;16.27;2.55;;;7.50;99.90;;;;;;5056612;28;20119;-62
2024/01/02 09:16:54;;;;;;;10.45;2.03;;;7.60;99.90;;;;;;5057958;28;20052;-62
2024/01/02 09:19:20;;;;;;;14.13;2.10;;;7.70;99.90;;;;;;5051748;28;20028;-60
2024/01/02 09:21:46;;;;;;;13.75;2.20;;;9.50;99.90;;;;;;5052269;28;20172;-62
2024/01/02 09:24:16;;;;;;;18.45;1.88;;;9.70;99.90;;;;;;5051699;28;20037;-62
2024/01/02 09:26:45;;;;;;;15.32;2.70;;;7.80;99.90;;;;;;5051853;28;20037;-61
2024/01/02 09:29:11;;;;;;;11.80;1.95;;;8.20;99.90;;;;;;5052128;28;20111;-62
2024/01/02 09:31:39;;;;;;;17.98;3.17;;;7.80;99.90;;;;;;5051547;28;20532;-62
2024/01/02 09:34:05;;;;;;;15.77;2.72;;;10.00;99.90;;;;;;5051555;28;20060;-62
2024/01/02 09:36:31;;;;;;;15.60;2.25;;;7.70;99.90;;;;;;5054549;28;20036;-62
2024/01/02 09:38:57;;;;;;;15.30;2.63;;;7.30;99.90;;;;;;5064242;28;20043;-62
2024/01/02 09:41:43;;;;;;;12.63;1.75;;;9.30;99.90;;;;;;5056377;28;20056;-62
2024/01/02 09:44:19;;;;;;;12.85;2.10;;;11.20;99.90;;;;;;5059336;28;20127;-62
2024/01/02 09:46:50;;;;;;;17.58;3.50;;;7.20;99.90;;;;;;5053442;28;20047;-61
2024/01/02 09:49:37;;;;;;;11.98;2.03;;;10.30;99.90;;;;;;5051393;28;20128;-63
2024/01/02 09:52:03;;;;;;;15.60;2.58;;;7.30;99.90;;;;;;5050554;28;20041;-62
2024/01/02 09:55:17;;;;;;;21.73;2.35;;;8.90;99.90;;;;;;5051409;28;20060;-62
2024/01/02 09:58:21;;;;;;;18.33;3.00;;;8.80;99.90;;;;;;5050273;28;20037;-62
2024/01/02 10:01:25;;;;;;;15.98;2.83;;;9.30;99.90;;;;;;5051853;28;20395;-62
2024/01/02 10:04:10;;;;;;;17.63;3.20;;;7.30;99.90;;;;;;5051920;28;20374;-62
2024/01/02 10:06:47;;;;;;;18.30;3.10;;;8.70;99.90;;;;;;5051969;28;20060;-62
2024/01/02 10:09:47;;;;;;;15.95;3.38;;;11.80;99.90;;;;;;5052048;28;20041;-61
2024/01/02 10:12:54;;;;;;;21.73;2.75;;;9.80;99.90;;;;;;5052157;28;20128;-62
2024/01/02 10:15:56;;;;;;;18.60;3.25;;;8.80;99.90;;;;;;5050783;28;20559;-62
2024/01/02 10:18:27;;;;;;;16.25;2.83;;;10.90;99.90;;;;;;5050235;28;20109;-61
2024/01/02 10:21:31;;;;;;;19.73;2.67;;;11.50;99.90;;;;;;5051891;28;20509;-61
2024/01/02 10:24:23;;;;;;;15.45;2.38;;;10.90;99.90;;;;;;5052020;28;20048;-62
2024/01/02 10:27:01;;;;;;;22.08;2.95;;;12.00;99.90;;;;;;5051709;28;20040;-62
2024/01/02 10:29:37;;;;;;;27.63;3.65;;;8.40;99.90;;;;;;5051201;28;20041;-62
2024/01/02 10:32:12;;;;;;;17.77;3.40;;;11.80;99.90;;;;;;5051920;28;20041;-62
2024/01/02 10:34:50;;;;;;;25.05;2.95;;;9.60;99.90;;;;;;5051080;28;20041;-61
2024/01/02 10:37:19;;;;;;;25.52;4.03;;;7.30;99.90;;;;;;5051268;28;20045;-62
2024/01/02 10:39:54;;;;;;;22.35;4.38;;;11.00;99.90;;;;;;5051691;28;20037;-62
2024/01/02 10:42:32;;;;;;;20.90;3.13;;;8.30;99.90;;;;;;5051779;28;20441;-62
2024/01/02 10:45:25;;;;;;;20.02;3.25;;;8.80;99.90;;;;;;5051944;28;20044;-62
2024/01/02 10:48:19;;;;;;;27.30;3.40;;;12.20;99.90;;;;;;5051750;28;20033;-61
2024/01/02 10:50:56;;;;;;;27.13;2.97;;;7.60;99.90;;;;;;5051712;28;20132;-61
2024/01/02 10:54:01;;;;;;;24.50;3.85;;;12.30;99.90;;;;;;5051869;28;20420;-62
2024/01/02 10:57:04;;;;;;;18.67;3.55;;;10.70;99.90;;;;;;5051452;28;20091;-62
2024/01/02 10:59:35;;;;;;;21.63;3.97;;;8.20;99.90;;;;;;5051528;28;20083;-61
2024/01/02 11:02:32;;;;;;;16.50;2.72;;;11.50;99.90;;;;;;5051367;28;20045;-62
2024/01/02 11:05:28;;;;;;;22.20;3.58;;;10.80;99.90;;;;;;5051347;28;20384;-62
2024/01/02 11:08:11;;;;;;;19.80;3.00;;;10.60;99.90;;;;;;5051648;28;20040;-61
2024/01/02 11:11:00;;;;;;;23.27;2.97;;;11.10;99.90;;;;;;5055220;28;20041;-62
2024/01/02 11:13:27;;;;;;;21.85;3.38;;;12.40;99.90;;;;;;5055139;28;20401;-62
2024/01/02 11:16:17;;;;;;;16.65;3.10;;;7.80;99.90;;;;;;5055315;28;20040;-62
2024/01/02 11:18:49;;;;;;;21.25;4.45;;;12.00;99.90;;;;;;5054097;28;20481;-62
2024/01/02 11:21:35;;;;;;;23.15;4.05;;;11.70;99.90;;;;;;5064447;28;20043;-62
2024/01/02 11:24:05;;;;;;;19.70;3.33;;;7.70;99.90;;;;;;5064663;28;20080;-62
2024/01/02 11:26:33;;;;;;;27.83;3.47;;;11.80;99.90;;;;;;5065952;28;20175;-61
2024/01/02 11:29:01;;;;;;;19.08;2.83;;;8.20;99.90;;;;;;5064591;28;20568;-61
2024/01/02 11:31:30;;;;;;;22.27;3.85;;;8.00;99.90;;;;;;5064912;28;20048;-62
2024/01/02 11:34:05;;;;;;;26.88;4.40;;;11.70;99.90;;;;;;5066662;28;20041;-62
2024/01/02 11:36:45;;;;;;;22.92;3.47;;;11.80;99.90;;;;;;5074689;28;20043;-62
2024/01/02 11:39:16;;;;;;;20.52;3.13;;;11.50;99.90;;;;;;5074576;28;20048;-62
2024/01/02 11:41:53;;;;;;;26.55;2.95;;;11.70;99.90;;;;;;5074472;28;20051;-62
2024/01/02 11:44:19;;;;;;;18.52;3.05;;;12.00;99.90;;;;;;5067550;28;20037;-61
2024/01/02 11:46:48;;;;;;;23.88;3.08;;;12.40;99.90;;;;;;5063927;28;20044;-61
2024/01/02 11:49:18;;;;;;;22.75;3.17;;;8.60;99.90;;;;;;5061713;28;20048;-62
2024/01/02 11:51:57;;;;;;;20.92;3.55;;;12.10;99.90;;;;;;5064298;28;20550;-61
2024/01/02 11:54:43;;;;;;;25.42;3.65;;;12.40;99.90;;;;;;5061533;28;20076;-61
2024/01/02 11:57:30;;;;;;;24.27;3.55;;;12.30;99.90;;;;;;5062009;28;20098;-60
2024/01/02 12:00:08;;;;;;;19.50;3.80;;;8.30;99.90;;;;;;5065227;28;20394;-63
2024/01/02 12:02:55;;;;;;;23.83;4.63;;;8.70;99.90;;;;;;5063569;28;20041;-59
2024/01/02 12:05:46;;;;;;;16.70;2.88;;;10.10;99.90;;;;;;5065875;28;20025;-60
2024/01/02 12:08:15;;;;;;;18.40;2.67;;;7.90;99.90;;;;;;5066283;28;20036;-60
2024/01/02 12:10:49;;;;;;;17.65;3.33;;;8.70;99.90;;;;;;5065611;28;20076;-60
2024/01/02 12:13:27;;;;;;;25.67;3.78;;;10.10;99.90;;;;;;5064268;28;20080;-62
2024/01/02 12:16:00;;;;;;;22.50;2.97;;;12.40;99.90;;;;;;5061828;28;20405;-62
2024/01/02 12:18:30;;;;;;;26.90;3.63;;;12.30;99.90;;;;;;5063695;28;20040;-62
2024/01/02 12:20:58;;;;;;;26.13;3.53;;;8.50;99.90;;;;;;5062352;28;20504;-62
2024/01/02 12:23:24;;;;;;;22.63;3.38;;;9.00;99.90;;;;;;5063482;28;20585;-62
2024/01/02 12:25:54;;;;;;;19.80;3.35;;;11.10;99.90;;;;;;5061881;28;20511;-62
2024/01/02 12:28:23;;;;;;;23.52;4.15;;;12.00;99.90;;;;;;5062020;28;20036;-62
2024/01/02 12:30:56;;;;;;;29.92;5.93;;;12.40;99.90;;;;;;5063479;28;21338;-61
2024/01/02 12:33:24;;;;;;;25.20;6.05;;;9.40;99.90;;;;;;5060258;28;20053;-62
2024/01/02 12:35:59;;;;;;;29.48;8.20;;;12.10;99.90;;;;;;5059694;28;20412;-62
2024/01/02 12:38:28;;;;;;;38.95;10.02;;;12.20;99.90;;;;;;5062554;28;20040;-62
2024/01/02 12:40:58;;;;;;;48.20;12.40;;;12.10;99.90;;;;;;5063305;28;20039;-62
2024/01/02 12:43:25;;;;;;;47.35;13.07;;;12.30;99.90;;;;;;5063212;28;20656;-60
2024/01/02 12:46:12;;;;;;;48.65;14.27;;;10.70;99.90;;;;;;5059904;28;20051;-61
2024/01/02 12:48:47;;;;;;;50.22;14.32;;;11.60;99.90;;;;;;5061782;28;20404;-62
2024/01/02 12:51:13;;;;;;;55.45;16.55;;;9.50;99.90;;;;;;5061455;28;20721;-62
2024/01/02 12:53:44;;;;;;;55.10;16.70;;;9.60;99.90;;;;;;5061634;28;20043;-61
2024/01/02 12:56:17;;;;;;;58.05;18.50;;;11.00;99.90;;;;;;5072813;28;20037;-62
2024/01/02 12:58:46;;;;;;;63.97;15.32;;;7.90;99.90;;;;;;5063762;28;20108;-63